sensor_id;sensor_type;location;lat;lon;timestamp;pressure;altitude;pressure_sealevel;temperature;humidity
32761;BME280;19126;47.472;7.850;2022-12-05T00:01:14;96416.44;;;1.28;24.21
32761;BME280;19126;47.472;7.850;2022-12-05T00:03:42;96428.31;;;1.31;23.51
32761;BME280;19126;47.472;7.850;2022-12-05T00:06:09;96431.97;;;1.28;23.67
32761;BME280;19126;47.472;7.850;2022-12-05T00:08:36;96438.53;;;1.33;23.73
32761;BME280;19126;47.472;7.850;2022-12-05T00:11:11;96439.38;;;1.33;22.82
32761;BME280;19126;47.472;7.850;2022-12-05T00:13:40;96440.28;;;1.32;23.29
32761;BME280;19126;47.472;7.850;2022-12-05T00:16:09;96442.78;;;1.34;22.71
32761;BME280;19126;47.472;7.850;2022-12-05T00:18:37;96444.31;;;1.36;22.55
32761;BME280;19126;47.472;7.850;2022-12-05T00:21:11;96451.13;;;1.37;22.33
32761;BME280;19126;47.472;7.850;2022-12-05T00:23:39;96446.91;;;1.36;21.85
32761;BME280;19126;47.472;7.850;2022-12-05T00:26:09;96444.19;;;1.38;21.44
32761;BME280;19126;47.472;7.850;2022-12-05T00:28:36;96443.94;;;1.41;21.85
32761;BME280;19126;47.472;7.850;2022-12-05T00:31:07;96441.59;;;1.38;21.63
32761;BME280;19126;47.472;7.850;2022-12-05T00:33:35;96438.75;;;1.41;20.97
32761;BME280;19126;47.472;7.850;2022-12-05T00:36:04;96432.63;;;1.42;20.78
32761;BME280;19126;47.472;7.850;2022-12-05T00:38:32;96429.94;;;1.43;20.95
32761;BME280;19126;47.472;7.850;2022-12-05T00:41:02;96438.28;;;1.47;20.66
32761;BME280;19126;47.472;7.850;2022-12-05T00:43:31;96432.28;;;1.46;20.64
32761;BME280;19126;47.472;7.850;2022-12-05T00:46:01;96442.50;;;1.48;20.93
32761;BME280;19126;47.472;7.850;2022-12-05T00:48:28;96451.09;;;1.49;19.67
32761;BME280;19126;47.472;7.850;2022-12-05T00:51:00;96457.47;;;1.44;20.21
32761;BME280;19126;47.472;7.850;2022-12-05T00:53:28;96465.00;;;1.48;20.34
32761;BME280;19126;47.472;7.850;2022-12-05T00:55:55;96466.88;;;1.45;19.72
32761;BME280;19126;47.472;7.850;2022-12-05T00:58:22;96465.25;;;1.44;19.29
32761;BME280;19126;47.472;7.850;2022-12-05T01:00:51;96464.28;;;1.45;19.96
32761;BME280;19126;47.472;7.850;2022-12-05T01:03:18;96475.59;;;1.44;20.40
32761;BME280;19126;47.472;7.850;2022-12-05T01:05:45;96481.81;;;1.42;20.16
32761;BME280;19126;47.472;7.850;2022-12-05T01:08:12;96472.66;;;1.38;20.91
32761;BME280;19126;47.472;7.850;2022-12-05T01:10:39;96477.72;;;1.39;20.85
32761;BME280;19126;47.472;7.850;2022-12-05T01:13:07;96461.13;;;1.42;20.69
32761;BME280;19126;47.472;7.850;2022-12-05T01:15:36;96464.88;;;1.38;20.47
32761;BME280;19126;47.472;7.850;2022-12-05T01:18:05;96458.06;;;1.37;19.98
32761;BME280;19126;47.472;7.850;2022-12-05T01:20:32;96470.06;;;1.38;20.15
32761;BME280;19126;47.472;7.850;2022-12-05T01:22:59;96471.00;;;1.37;20.21
32761;BME280;19126;47.472;7.850;2022-12-05T01:25:26;96477.03;;;1.37;20.89
32761;BME280;19126;47.472;7.850;2022-12-05T01:27:54;96483.84;;;1.38;20.86
32761;BME280;19126;47.472;7.850;2022-12-05T01:30:21;96491.38;;;1.41;19.61
32761;BME280;19126;47.472;7.850;2022-12-05T01:32:49;96487.47;;;1.36;20.36
32761;BME280;19126;47.472;7.850;2022-12-05T01:35:17;96502.31;;;1.34;20.72
32761;BME280;19126;47.472;7.850;2022-12-05T01:37:45;96498.78;;;1.35;20.38
32761;BME280;19126;47.472;7.850;2022-12-05T01:40:12;96499.00;;;1.31;21.13
32761;BME280;19126;47.472;7.850;2022-12-05T01:42:40;96500.75;;;1.31;20.08
32761;BME280;19126;47.472;7.850;2022-12-05T01:45:13;96507.72;;;1.30;20.27
32761;BME280;19126;47.472;7.850;2022-12-05T01:47:42;96499.94;;;1.30;20.98
32761;BME280;19126;47.472;7.850;2022-12-05T01:50:10;96502.53;;;1.30;20.78
32761;BME280;19126;47.472;7.850;2022-12-05T01:52:40;96493.00;;;1.31;20.67
32761;BME280;19126;47.472;7.850;2022-12-05T01:55:12;96490.41;;;1.31;19.81
32761;BME280;19126;47.472;7.850;2022-12-05T01:57:41;96499.00;;;1.31;19.68
32761;BME280;19126;47.472;7.850;2022-12-05T02:00:13;96503.59;;;1.28;19.70
32761;BME280;19126;47.472;7.850;2022-12-05T02:02:47;96498.31;;;1.29;19.52
32761;BME280;19126;47.472;7.850;2022-12-05T02:05:19;96489.13;;;1.25;19.69
32761;BME280;19126;47.472;7.850;2022-12-05T02:07:48;96503.47;;;1.29;19.34
32761;BME280;19126;47.472;7.850;2022-12-05T02:10:16;96491.34;;;1.30;19.33
32761;BME280;19126;47.472;7.850;2022-12-05T02:12:43;96491.34;;;1.30;19.71
32761;BME280;19126;47.472;7.850;2022-12-05T02:15:28;96491.25;;;1.31;19.42
32761;BME280;19126;47.472;7.850;2022-12-05T02:18:12;96491.00;;;1.35;19.62
32761;BME280;19126;47.472;7.850;2022-12-05T02:21:01;96491.94;;;1.34;19.19
32761;BME280;19126;47.472;7.850;2022-12-05T02:24:07;96484.09;;;1.35;19.42
32761;BME280;19126;47.472;7.850;2022-12-05T02:26:55;96476.31;;;1.35;19.37
32761;BME280;19126;47.472;7.850;2022-12-05T02:30:05;96481.50;;;1.35;18.69
32761;BME280;19126;47.472;7.850;2022-12-05T02:35:36;96492.66;;;1.36;18.65
32761;BME280;19126;47.472;7.850;2022-12-05T02:38:24;96490.75;;;1.38;18.45
32761;BME280;19126;47.472;7.850;2022-12-05T02:41:02;96494.44;;;1.35;19.07
32761;BME280;19126;47.472;7.850;2022-12-05T02:43:37;96504.09;;;1.33;18.31
32761;BME280;19126;47.472;7.850;2022-12-05T02:46:11;96504.66;;;1.37;18.30
32761;BME280;19126;47.472;7.850;2022-12-05T02:48:42;96504.09;;;1.33;18.75
32761;BME280;19126;47.472;7.850;2022-12-05T02:51:13;96498.06;;;1.33;18.17
32761;BME280;19126;47.472;7.850;2022-12-05T02:53:43;96503.25;;;1.33;18.09
32761;BME280;19126;47.472;7.850;2022-12-05T02:56:11;96504.09;;;1.33;18.04
32761;BME280;19126;47.472;7.850;2022-12-05T02:58:44;96498.06;;;1.33;17.89
32761;BME280;19126;47.472;7.850;2022-12-05T03:01:15;96487.72;;;1.33;17.96
32761;BME280;19126;47.472;7.850;2022-12-05T03:03:44;96481.50;;;1.35;17.53
32761;BME280;19126;47.472;7.850;2022-12-05T03:06:14;96493.50;;;1.36;18.01
32761;BME280;19126;47.472;7.850;2022-12-05T03:08:45;96482.31;;;1.36;17.88
32761;BME280;19126;47.472;7.850;2022-12-05T03:11:14;96479.47;;;1.39;17.27
32761;BME280;19126;47.472;7.850;2022-12-05T03:13:47;96482.19;;;1.37;17.40
32761;BME280;19126;47.472;7.850;2022-12-05T03:16:21;96485.47;;;1.39;18.10
32761;BME280;19126;47.472;7.850;2022-12-05T03:18:54;96490.75;;;1.38;17.50
32761;BME280;19126;47.472;7.850;2022-12-05T03:21:34;96493.50;;;1.36;17.54
32761;BME280;19126;47.472;7.850;2022-12-05T03:24:07;96501.13;;;1.38;17.10
32761;BME280;19126;47.472;7.850;2022-12-05T03:26:49;96502.91;;;1.37;17.34
32761;BME280;19126;47.472;7.850;2022-12-05T03:29:25;96506.28;;;1.38;17.91
32761;BME280;19126;47.472;7.850;2022-12-05T03:32:06;96519.25;;;1.38;17.13
32761;BME280;19126;47.472;7.850;2022-12-05T03:34:49;96512.41;;;1.37;17.23
32761;BME280;19126;47.472;7.850;2022-12-05T03:37:26;96504.53;;;1.38;17.22
32761;BME280;19126;47.472;7.850;2022-12-05T03:40:05;96498.44;;;1.39;16.69
32761;BME280;19126;47.472;7.850;2022-12-05T03:42:39;96504.66;;;1.37;17.21
32761;BME280;19126;47.472;7.850;2022-12-05T03:45:13;96514.19;;;1.36;16.97
32761;BME280;19126;47.472;7.850;2022-12-05T03:47:48;96521.81;;;1.38;16.86
32761;BME280;19126;47.472;7.850;2022-12-05T03:50:22;96524.53;;;1.36;17.07
32761;BME280;19126;47.472;7.850;2022-12-05T03:52:56;96531.38;;;1.37;16.34
32761;BME280;19126;47.472;7.850;2022-12-05T03:55:29;96534.75;;;1.38;17.29
32761;BME280;19126;47.472;7.850;2022-12-05T03:58:02;96541.59;;;1.39;16.42
32761;BME280;19126;47.472;7.850;2022-12-05T04:00:36;96539.00;;;1.39;16.36
32761;BME280;19126;47.472;7.850;2022-12-05T04:03:11;96531.13;;;1.40;16.85
32761;BME280;19126;47.472;7.850;2022-12-05T04:05:45;96537.00;;;1.42;16.47
32761;BME280;19126;47.472;7.850;2022-12-05T04:08:18;96531.13;;;1.40;17.04
32761;BME280;19126;47.472;7.850;2022-12-05T04:10:49;96531.00;;;1.42;16.28
32761;BME280;19126;47.472;7.850;2022-12-05T04:13:21;96532.66;;;1.43;16.94
32761;BME280;19126;47.472;7.850;2022-12-05T04:15:54;96533.47;;;1.43;16.05
32761;BME280;19126;47.472;7.850;2022-12-05T04:18:49;96533.47;;;1.43;16.81
32761;BME280;19126;47.472;7.850;2022-12-05T04:21:20;96530.75;;;1.45;17.07
32761;BME280;19126;47.472;7.850;2022-12-05T04:24:11;96522.06;;;1.46;16.44
32761;BME280;19126;47.472;7.850;2022-12-05T04:27:09;96527.22;;;1.46;16.57
32761;BME280;19126;47.472;7.850;2022-12-05T04:29:47;96521.09;;;1.47;16.71
32761;BME280;19126;47.472;7.850;2022-12-05T04:32:19;96510.50;;;1.50;16.77
32761;BME280;19126;47.472;7.850;2022-12-05T04:35:00;96506.19;;;1.51;15.88
32761;BME280;19126;47.472;7.850;2022-12-05T04:37:32;96504.41;;;1.51;16.49
32761;BME280;19126;47.472;7.850;2022-12-05T04:40:05;96504.41;;;1.51;16.61
32761;BME280;19126;47.472;7.850;2022-12-05T04:42:36;96512.75;;;1.55;16.65
32761;BME280;19126;47.472;7.850;2022-12-05T04:45:07;96522.63;;;1.61;16.33
32761;BME280;19126;47.472;7.850;2022-12-05T04:47:41;96527.56;;;1.64;16.31
32761;BME280;19126;47.472;7.850;2022-12-05T04:50:13;96542.25;;;1.64;16.15
32761;BME280;19126;47.472;7.850;2022-12-05T04:52:46;96536.28;;;1.63;16.24
32761;BME280;19126;47.472;7.850;2022-12-05T04:55:18;96522.50;;;1.63;16.91
32761;BME280;19126;47.472;7.850;2022-12-05T04:57:58;96507.81;;;1.63;16.40
32761;BME280;19126;47.472;7.850;2022-12-05T05:00:30;96511.34;;;1.62;15.89
32761;BME280;19126;47.472;7.850;2022-12-05T05:03:04;96518.41;;;1.60;16.58
32761;BME280;19126;47.472;7.850;2022-12-05T05:05:34;96519.22;;;1.60;16.15
32761;BME280;19126;47.472;7.850;2022-12-05T05:08:03;96536.38;;;1.61;16.38
32761;BME280;19126;47.472;7.850;2022-12-05T05:10:36;96553.47;;;1.64;15.58
32761;BME280;19126;47.472;7.850;2022-12-05T05:13:05;96568.16;;;1.64;16.46
32761;BME280;19126;47.472;7.850;2022-12-05T05:15:32;96563.81;;;1.64;15.67
32761;BME280;19126;47.472;7.850;2022-12-05T05:18:00;96560.41;;;1.64;16.10
32761;BME280;19126;47.472;7.850;2022-12-05T05:20:27;96558.50;;;1.66;15.39
32761;BME280;19126;47.472;7.850;2022-12-05T05:22:57;96569.00;;;1.64;16.24
32761;BME280;19126;47.472;7.850;2022-12-05T05:25:25;96562.03;;;1.65;16.46
32761;BME280;19126;47.472;7.850;2022-12-05T05:27:54;96574.03;;;1.66;16.34
32761;BME280;19126;47.472;7.850;2022-12-05T05:30:23;96595.94;;;1.61;15.89
32761;BME280;19126;47.472;7.850;2022-12-05T05:32:51;96609.72;;;1.62;15.69
32761;BME280;19126;47.472;7.850;2022-12-05T05:35:19;96603.94;;;1.58;16.17
32761;BME280;19126;47.472;7.850;2022-12-05T05:37:47;96597.81;;;1.59;16.72
32761;BME280;19126;47.472;7.850;2022-12-05T05:40:15;96587.22;;;1.63;15.81
32761;BME280;19126;47.472;7.850;2022-12-05T05:42:43;96570.75;;;1.64;16.59
32761;BME280;19126;47.472;7.850;2022-12-05T05:45:12;96576.88;;;1.63;16.43
32761;BME280;19126;47.472;7.850;2022-12-05T05:47:40;96588.06;;;1.63;15.66
32761;BME280;19126;47.472;7.850;2022-12-05T05:50:09;96589.09;;;1.60;15.85
32761;BME280;19126;47.472;7.850;2022-12-05T05:52:37;96590.66;;;1.63;16.19
32761;BME280;19126;47.472;7.850;2022-12-05T05:55:07;96617.25;;;1.65;15.67
32761;BME280;19126;47.472;7.850;2022-12-05T05:57:36;96629.03;;;1.69;16.34
32761;BME280;19126;47.472;7.850;2022-12-05T06:00:07;96603.47;;;1.76;16.04
32761;BME280;19126;47.472;7.850;2022-12-05T06:02:35;96613.72;;;1.78;15.39
32761;BME280;19126;47.472;7.850;2022-12-05T06:05:03;96617.25;;;1.77;16.64
32761;BME280;19126;47.472;7.850;2022-12-05T06:07:31;96617.00;;;1.80;15.84
32761;BME280;19126;47.472;7.850;2022-12-05T06:09:59;96623.13;;;1.79;15.88
32761;BME280;19126;47.472;7.850;2022-12-05T06:12:26;96625.00;;;1.77;15.53
32761;BME280;19126;47.472;7.850;2022-12-05T06:14:54;96635.47;;;1.75;16.39
32761;BME280;19126;47.472;7.850;2022-12-05T06:17:22;96621.59;;;1.76;15.77
32761;BME280;19126;47.472;7.850;2022-12-05T06:19:49;96605.34;;;1.74;16.20
32761;BME280;19126;47.472;7.850;2022-12-05T06:22:16;96611.34;;;1.74;16.79
32761;BME280;19126;47.472;7.850;2022-12-05T06:24:43;96634.91;;;1.71;16.66
32761;BME280;19126;47.472;7.850;2022-12-05T06:27:10;96640.44;;;1.67;16.56
32761;BME280;19126;47.472;7.850;2022-12-05T06:29:38;96636.19;;;1.66;15.93
32761;BME280;19126;47.472;7.850;2022-12-05T06:32:07;96642.44;;;1.63;17.12
32761;BME280;19126;47.472;7.850;2022-12-05T06:34:34;96657.28;;;1.61;16.79
32761;BME280;19126;47.472;7.850;2022-12-05T06:37:01;96662.31;;;1.63;16.68
32761;BME280;19126;47.472;7.850;2022-12-05T06:39:29;96680.44;;;1.63;16.56
32761;BME280;19126;47.472;7.850;2022-12-05T06:41:56;96688.22;;;1.63;16.49
32761;BME280;19126;47.472;7.850;2022-12-05T06:44:24;96703.50;;;1.66;16.42
32761;BME280;19126;47.472;7.850;2022-12-05T06:46:53;96711.88;;;1.69;16.82
32761;BME280;19126;47.472;7.850;2022-12-05T06:49:23;96699.75;;;1.70;16.19
32761;BME280;19126;47.472;7.850;2022-12-05T06:51:51;96710.81;;;1.72;15.83
32761;BME280;19126;47.472;7.850;2022-12-05T06:54:19;96711.75;;;1.71;16.09
32761;BME280;19126;47.472;7.850;2022-12-05T06:56:46;96707.41;;;1.71;16.96
32761;BME280;19126;47.472;7.850;2022-12-05T06:59:13;96707.06;;;1.76;16.32
32761;BME280;19126;47.472;7.850;2022-12-05T07:01:41;96699.28;;;1.76;16.74
32761;BME280;19126;47.472;7.850;2022-12-05T07:04:11;96700.81;;;1.79;16.12
32761;BME280;19126;47.472;7.850;2022-12-05T07:06:41;96697.63;;;1.86;15.88
32761;BME280;19126;47.472;7.850;2022-12-05T07:09:09;96707.28;;;1.84;16.92
32761;BME280;19126;47.472;7.850;2022-12-05T07:11:37;96706.34;;;1.85;16.01
32761;BME280;19126;47.472;7.850;2022-12-05T07:14:05;96705.41;;;1.86;16.68
32761;BME280;19126;47.472;7.850;2022-12-05T07:16:35;96711.28;;;1.88;16.38
32761;BME280;19126;47.472;7.850;2022-12-05T07:19:02;96709.53;;;1.89;16.00
32761;BME280;19126;47.472;7.850;2022-12-05T07:21:30;96712.84;;;1.91;16.51
32761;BME280;19126;47.472;7.850;2022-12-05T07:23:59;96706.72;;;1.92;16.73
32761;BME280;19126;47.472;7.850;2022-12-05T07:26:26;96709.19;;;1.94;15.95
32761;BME280;19126;47.472;7.850;2022-12-05T07:28:55;96706.47;;;1.95;16.67
32761;BME280;19126;47.472;7.850;2022-12-05T07:31:23;96713.19;;;1.98;15.75
32761;BME280;19126;47.472;7.850;2022-12-05T07:33:51;96737.09;;;2.01;15.65
32761;BME280;19126;47.472;7.850;2022-12-05T07:36:20;96740.41;;;2.03;16.92
32761;BME280;19126;47.472;7.850;2022-12-05T07:38:53;96738.75;;;2.02;16.27
32761;BME280;19126;47.472;7.850;2022-12-05T07:41:25;96733.56;;;2.02;16.54
32761;BME280;19126;47.472;7.850;2022-12-05T07:43:55;96730.84;;;2.04;16.61
32761;BME280;19126;47.472;7.850;2022-12-05T07:46:23;96726.50;;;2.04;16.33
32761;BME280;19126;47.472;7.850;2022-12-05T07:48:51;96728.00;;;2.07;16.47
32761;BME280;19126;47.472;7.850;2022-12-05T07:51:20;96744.41;;;2.08;16.62
32761;BME280;19126;47.472;7.850;2022-12-05T07:53:47;96734.84;;;2.08;16.19
32761;BME280;19126;47.472;7.850;2022-12-05T07:56:16;96749.91;;;2.14;15.92
32761;BME280;19126;47.472;7.850;2022-12-05T07:58:47;96746.28;;;2.17;16.34
32761;BME280;19126;47.472;7.850;2022-12-05T08:01:17;96743.31;;;2.22;16.27
32761;BME280;19126;47.472;7.850;2022-12-05T08:03:45;96740.50;;;2.25;16.70
32761;BME280;19126;47.472;7.850;2022-12-05T08:06:15;96748.97;;;2.27;16.35
32761;BME280;19126;47.472;7.850;2022-12-05T08:08:43;96752.16;;;2.30;16.78
32761;BME280;19126;47.472;7.850;2022-12-05T08:11:13;96750.38;;;2.31;15.45
32761;BME280;19126;47.472;7.850;2022-12-05T08:13:44;96747.56;;;2.34;15.67
32761;BME280;19126;47.472;7.850;2022-12-05T08:16:14;96759.47;;;2.37;16.53
32761;BME280;19126;47.472;7.850;2022-12-05T08:18:43;96768.66;;;2.41;16.11
32761;BME280;19126;47.472;7.850;2022-12-05T08:21:12;96779.50;;;2.46;15.55
32761;BME280;19126;47.472;7.850;2022-12-05T08:23:40;96776.78;;;2.47;16.23
32761;BME280;19126;47.472;7.850;2022-12-05T08:26:10;96777.13;;;2.54;17.10
32761;BME280;19126;47.472;7.850;2022-12-05T08:28:38;96781.38;;;2.55;16.68
32761;BME280;19126;47.472;7.850;2022-12-05T08:31:09;96783.25;;;2.53;16.00
32761;BME280;19126;47.472;7.850;2022-12-05T08:33:37;96779.81;;;2.53;16.35
32761;BME280;19126;47.472;7.850;2022-12-05T08:36:08;96775.47;;;2.53;16.68
32761;BME280;19126;47.472;7.850;2022-12-05T08:38:36;96774.53;;;2.54;16.99
32761;BME280;19126;47.472;7.850;2022-12-05T08:41:05;96779.47;;;2.57;16.46
32761;BME280;19126;47.472;7.850;2022-12-05T08:43:33;96780.19;;;2.59;17.00
32761;BME280;19126;47.472;7.850;2022-12-05T08:46:00;96781.69;;;2.62;17.60
32761;BME280;19126;47.472;7.850;2022-12-05T08:48:31;96767.69;;;2.64;17.17
32761;BME280;19126;47.472;7.850;2022-12-05T08:51:03;96768.28;;;2.68;16.29
32761;BME280;19126;47.472;7.850;2022-12-05T08:53:30;96775.13;;;2.69;17.01
32761;BME280;19126;47.472;7.850;2022-12-05T08:56:00;96769.69;;;2.72;17.15
32761;BME280;19126;47.472;7.850;2022-12-05T08:58:28;96784.06;;;2.76;17.91
32761;BME280;19126;47.472;7.850;2022-12-05T09:01:03;96781.22;;;2.80;17.30
32761;BME280;19126;47.472;7.850;2022-12-05T09:03:32;96782.72;;;2.82;18.60
32761;BME280;19126;47.472;7.850;2022-12-05T09:06:06;96777.31;;;2.85;17.88
32761;BME280;19126;47.472;7.850;2022-12-05T09:08:34;96777.91;;;2.89;18.64
32761;BME280;19126;47.472;7.850;2022-12-05T09:11:05;96775.16;;;2.90;18.54
32761;BME280;19126;47.472;7.850;2022-12-05T09:13:32;96773.16;;;2.94;18.82
32761;BME280;19126;47.472;7.850;2022-12-05T09:16:05;96763.72;;;2.93;19.35
32761;BME280;19126;47.472;7.850;2022-12-05T09:18:34;96777.97;;;2.99;20.32
32761;BME280;19126;47.472;7.850;2022-12-05T09:21:05;96782.56;;;3.06;20.78
32761;BME280;19126;47.472;7.850;2022-12-05T09:23:33;96796.34;;;3.07;21.32
32761;BME280;19126;47.472;7.850;2022-12-05T09:26:00;96794.69;;;3.06;21.91
32761;BME280;19126;47.472;7.850;2022-12-05T09:28:28;96801.28;;;3.10;22.26
32761;BME280;19126;47.472;7.850;2022-12-05T09:30:57;96806.25;;;3.13;23.63
32761;BME280;19126;47.472;7.850;2022-12-05T09:33:26;96801.50;;;3.18;24.60
32761;BME280;19126;47.472;7.850;2022-12-05T09:35:55;96801.25;;;3.21;24.33
32761;BME280;19126;47.472;7.850;2022-12-05T09:38:23;96798.41;;;3.25;25.94
32761;BME280;19126;47.472;7.850;2022-12-05T09:40:59;96801.47;;;3.30;26.49
32761;BME280;19126;47.472;7.850;2022-12-05T09:43:35;96799.31;;;3.35;27.24
32761;BME280;19126;47.472;7.850;2022-12-05T09:46:12;96804.16;;;3.40;27.51
32761;BME280;19126;47.472;7.850;2022-12-05T09:48:43;96807.31;;;3.43;28.98
32761;BME280;19126;47.472;7.850;2022-12-05T09:51:12;96802.72;;;3.47;30.44
32761;BME280;19126;47.472;7.850;2022-12-05T09:53:41;96809.31;;;3.51;31.81
32761;BME280;19126;47.472;7.850;2022-12-05T09:56:25;96810.00;;;3.53;32.97
32761;BME280;19126;47.472;7.850;2022-12-05T09:58:54;96807.84;;;3.58;34.45
32761;BME280;19126;47.472;7.850;2022-12-05T10:01:30;96804.16;;;3.61;36.14
32761;BME280;19126;47.472;7.850;2022-12-05T10:04:18;96804.84;;;3.63;39.28
32761;BME280;19126;47.472;7.850;2022-12-05T10:06:59;96813.25;;;3.66;41.35
32761;BME280;19126;47.472;7.850;2022-12-05T10:09:49;96816.53;;;3.69;43.65
32761;BME280;19126;47.472;7.850;2022-12-05T10:12:51;96818.88;;;3.72;46.61
32761;BME280;19126;47.472;7.850;2022-12-05T10:15:31;96820.53;;;3.73;49.82
32761;BME280;19126;47.472;7.850;2022-12-05T10:18:04;96816.03;;;3.75;53.07
32761;BME280;19126;47.472;7.850;2022-12-05T10:20:42;96810.00;;;3.74;58.17
32761;BME280;19126;47.472;7.850;2022-12-05T10:23:19;96807.03;;;3.79;59.53
32761;BME280;19126;47.472;7.850;2022-12-05T10:25:54;96809.13;;;3.85;58.73
32761;BME280;19126;47.472;7.850;2022-12-05T10:28:31;96813.91;;;3.90;59.39
32761;BME280;19126;47.472;7.850;2022-12-05T10:31:03;96809.31;;;3.93;59.97
32761;BME280;19126;47.472;7.850;2022-12-05T10:33:37;96802.22;;;3.95;61.90
32761;BME280;19126;47.472;7.850;2022-12-05T10:36:11;96799.09;;;4.02;62.36
32761;BME280;19126;47.472;7.850;2022-12-05T10:38:40;96798.97;;;4.03;65.83
32761;BME280;19126;47.472;7.850;2022-12-05T10:41:09;96803.66;;;4.09;68.56
32761;BME280;19126;47.472;7.850;2022-12-05T10:43:40;96805.16;;;4.12;71.84
32761;BME280;19126;47.472;7.850;2022-12-05T10:46:09;96803.41;;;4.13;77.54
32761;BME280;19126;47.472;7.850;2022-12-05T10:48:40;96801.88;;;4.10;84.58
32761;BME280;19126;47.472;7.850;2022-12-05T10:51:13;96798.38;;;4.21;87.53
32761;BME280;19126;47.472;7.850;2022-12-05T10:53:46;96797.59;;;4.30;89.68
32761;BME280;19126;47.472;7.850;2022-12-05T10:56:38;96790.09;;;4.37;92.97
32761;BME280;19126;47.472;7.850;2022-12-05T10:59:07;96796.56;;;4.43;97.23
32761;BME280;19126;47.472;7.850;2022-12-05T11:01:35;96796.16;;;4.47;99.38
32761;BME280;19126;47.472;7.850;2022-12-05T11:04:12;96786.97;;;4.43;100.00
32761;BME280;19126;47.472;7.850;2022-12-05T11:06:51;96788.09;;;4.50;100.00
32761;BME280;19126;47.472;7.850;2022-12-05T11:09:22;96788.25;;;4.59;100.00
32761;BME280;19126;47.472;7.850;2022-12-05T11:12:13;96791.16;;;4.65;100.00
32761;BME280;19126;47.472;7.850;2022-12-05T11:15:01;96787.88;;;4.73;100.00
32761;BME280;19126;47.472;7.850;2022-12-05T11:17:32;96786.78;;;4.76;100.00
32761;BME280;19126;47.472;7.850;2022-12-05T11:20:00;96785.44;;;4.81;100.00
32761;BME280;19126;47.472;7.850;2022-12-05T11:22:32;96783.13;;;4.88;100.00
32761;BME280;19126;47.472;7.850;2022-12-05T11:25:23;96780.91;;;4.83;100.00
32761;BME280;19126;47.472;7.850;2022-12-05T11:27:51;96775.72;;;4.93;100.00
32761;BME280;19126;47.472;7.850;2022-12-05T11:30:21;96769.03;;;5.01;100.00
32761;BME280;19126;47.472;7.850;2022-12-05T11:32:50;96764.91;;;5.18;100.00
32761;BME280;19126;47.472;7.850;2022-12-05T11:35:24;96771.50;;;5.22;100.00
32761;BME280;19126;47.472;7.850;2022-12-05T11:37:55;96770.53;;;5.23;100.00
32761;BME280;19126;47.472;7.850;2022-12-05T11:40:29;96762.19;;;5.29;100.00
32761;BME280;19126;47.472;7.850;2022-12-05T11:43:32;96761.63;;;5.25;100.00
32761;BME280;19126;47.472;7.850;2022-12-05T11:46:11;96760.53;;;5.38;100.00
32761;BME280;19126;47.472;7.850;2022-12-05T11:49:02;96758.34;;;5.43;100.00
32761;BME280;19126;47.472;7.850;2022-12-05T11:51:39;96751.78;;;5.49;100.00
32761;BME280;19126;47.472;7.850;2022-12-05T11:54:54;96759.06;;;5.35;100.00
32761;BME280;19126;47.472;7.850;2022-12-05T11:57:48;96751.06;;;5.27;100.00
32761;BME280;19126;47.472;7.850;2022-12-05T12:00:26;96762.06;;;5.31;100.00
32761;BME280;19126;47.472;7.850;2022-12-05T12:03:42;96762.63;;;5.34;100.00
32761;BME280;19126;47.472;7.850;2022-12-05T12:06:26;96752.19;;;5.34;100.00
32761;BME280;19126;47.472;7.850;2022-12-05T12:09:11;96754.81;;;5.34;100.00
32761;BME280;19126;47.472;7.850;2022-12-05T12:11:50;96753.56;;;5.38;100.00
32761;BME280;19126;47.472;7.850;2022-12-05T12:14:38;96757.66;;;5.41;100.00
32761;BME280;19126;47.472;7.850;2022-12-05T12:17:22;96752.47;;;5.51;100.00
32761;BME280;19126;47.472;7.850;2022-12-05T12:23:23;96761.63;;;5.55;100.00
32761;BME280;19126;47.472;7.850;2022-12-05T12:26:05;96758.72;;;5.68;100.00
32761;BME280;19126;47.472;7.850;2022-12-05T12:28:41;96755.59;;;5.64;100.00
32761;BME280;19126;47.472;7.850;2022-12-05T12:31:45;96755.84;;;5.71;100.00
32761;BME280;19126;47.472;7.850;2022-12-05T12:34:46;96753.63;;;5.76;100.00
32761;BME280;19126;47.472;7.850;2022-12-05T12:37:23;96759.41;;;5.80;100.00
32761;BME280;19126;47.472;7.850;2022-12-05T12:40:03;96752.50;;;5.89;100.00
32761;BME280;19126;47.472;7.850;2022-12-05T12:42:48;96752.78;;;5.95;100.00
32761;BME280;19126;47.472;7.850;2022-12-05T12:45:33;96749.63;;;6.01;100.00
32761;BME280;19126;47.472;7.850;2022-12-05T12:48:26;96759.34;;;6.09;100.00
32761;BME280;19126;47.472;7.850;2022-12-05T12:50:57;96753.31;;;6.09;100.00
32761;BME280;19126;47.472;7.850;2022-12-05T12:54:05;96756.22;;;6.06;100.00
32761;BME280;19126;47.472;7.850;2022-12-05T12:56:49;96760.59;;;6.05;100.00
32761;BME280;19126;47.472;7.850;2022-12-05T12:59:43;96769.38;;;5.94;100.00
32761;BME280;19126;47.472;7.850;2022-12-05T13:02:18;96755.56;;;5.84;100.00
32761;BME280;19126;47.472;7.850;2022-12-05T13:04:53;96754.75;;;5.74;100.00
32761;BME280;19126;47.472;7.850;2022-12-05T13:07:27;96748.72;;;5.63;100.00
32761;BME280;19126;47.472;7.850;2022-12-05T13:10:04;96754.50;;;5.57;100.00
32761;BME280;19126;47.472;7.850;2022-12-05T13:12:39;96747.78;;;5.54;100.00
32761;BME280;19126;47.472;7.850;2022-12-05T13:15:13;96745.56;;;5.60;100.00
32761;BME280;19126;47.472;7.850;2022-12-05T13:17:44;96745.97;;;5.65;100.00
32761;BME280;19126;47.472;7.850;2022-12-05T13:20:17;96739.78;;;5.76;100.00
32761;BME280;19126;47.472;7.850;2022-12-05T13:22:49;96748.28;;;5.78;100.00
32761;BME280;19126;47.472;7.850;2022-12-05T13:25:20;96742.25;;;5.77;100.00
32761;BME280;19126;47.472;7.850;2022-12-05T13:27:54;96733.75;;;5.75;100.00
32761;BME280;19126;47.472;7.850;2022-12-05T13:30:23;96736.34;;;5.75;100.00
32761;BME280;19126;47.472;7.850;2022-12-05T13:32:57;96749.53;;;5.74;100.00
32761;BME280;19126;47.472;7.850;2022-12-05T13:35:30;96751.03;;;5.76;100.00
32761;BME280;19126;47.472;7.850;2022-12-05T13:38:21;96743.50;;;5.73;100.00
32761;BME280;19126;47.472;7.850;2022-12-05T13:41:07;96745.69;;;5.68;100.00
32761;BME280;19126;47.472;7.850;2022-12-05T13:43:53;96737.34;;;5.64;100.00
32761;BME280;19126;47.472;7.850;2022-12-05T13:46:26;96742.69;;;5.63;100.00
32761;BME280;19126;47.472;7.850;2022-12-05T13:49:01;96740.63;;;5.66;100.00